Flight Track Log - Related Links

Times and Time Zones

All times are in EDT time to prevent confusion due to time zone crossing. See the AAL814 flight status page for this flight to view local times or setup timezone preferences in your user account.

Time Position Orientation Groundspeed Altitude Reporting Facility
EDT Latitude Longitude Course Direction KTS MPH feet Rate Location/Type
Wed 03:02:00 PM 17.4702 -63.0021 331° Northwest  Level Estimated
Wed 03:03:00 PM 17.5729 -63.0229 349° North  Level FlightAware Approximate
Wed 03:04:00 PM 17.6755 -63.0438 349° North  Level FlightAware Approximate
Wed 03:05:00 PM 17.7276 -63.1389 337° Northwest  Level Estimated
Wed 03:06:00 PM 17.7796 -63.2340 329° Northwest  Level Estimated
Wed 03:07:00 PM 17.8753 -63.1898 24° Northeast  Level FlightAware Approximate
Wed 03:07:08 PM 17.7000 -63.0710 24° Northeast 358 412 11,800  Level FlightAware ADS-B
Wed 03:07:48 PM 17.7380 -63.1240 307° West 359 413 13,400 1,200 Climbing FlightAware ADS-B
Wed 03:08:28 PM 17.7720 -63.1710 307° West 359 413 13,400  Level FlightAware ADS-B
Wed 03:09:08 PM 17.8060 -63.2190 307° West 359 413 13,400 3,677 Level FlightAware ADS-B
Wed 03:09:30 PM 17.8333 -63.2667 307° West 370 426 17,200 4,610 Climbing San Juan Center
Wed 03:10:30 PM 17.8833 -63.3667 298° West 380 437 19,700 1,878 Climbing San Juan Center
Wed 03:16:03 PM 18.2130 -63.9760 298° West 450 518 29,500 1,777 Climbing FlightAware ADS-B
Wed 03:16:38 PM 18.2450 -64.0370 299° West 444 511 30,600 1,976 Climbing FlightAware ADS-B
Wed 03:17:28 PM 18.2950 -64.1340 299° West 433 498 32,300 1,933 Climbing FlightAware ADS-B
Wed 03:18:08 PM 18.3340 -64.2080 299° West 428 493 33,500 1,275 Climbing FlightAware ADS-B
Wed 03:18:48 PM 18.3720 -64.2810 299° West 420 483 34,000 375 Climbing FlightAware ADS-B
Wed 03:19:28 PM 18.4040 -64.3450 298° West 420 483 34,000  Level FlightAware ADS-B
Wed 03:20:08 PM 18.4350 -64.4060 298° West 420 483 34,000  Level FlightAware ADS-B
Wed 03:20:58 PM 18.4740 -64.4830 298° West 420 483 34,000  Level FlightAware ADS-B
Wed 03:21:38 PM 18.5050 -64.5440 298° West 420 483 34,000  Level FlightAware ADS-B
Wed 03:22:18 PM 18.5620 -64.6490 300° West 405 466 34,000  Level FlightAware ADS-B
Wed 03:23:03 PM 18.6010 -64.7240 299° West 410 472 34,000  Level FlightAware ADS-B
Wed 03:23:43 PM 18.6390 -64.7980 298° West 411 473 34,000  Level FlightAware ADS-B
Wed 03:24:23 PM 18.6760 -64.8700 298° West 411 473 34,000  Level FlightAware ADS-B
Wed 03:25:08 PM 18.7160 -64.9480 298° West 410 472 34,000  Level FlightAware ADS-B
Wed 03:25:48 PM 18.7510 -65.0160 299° West 410 472 34,000  Level FlightAware ADS-B
Wed 03:26:33 PM 18.7930 -65.0990 298° West 408 470 34,000  Level FlightAware ADS-B
Wed 03:27:13 PM 18.8290 -65.1680 299° West 407 468 34,000  Level FlightAware ADS-B
Wed 03:27:58 PM 18.8680 -65.2450 298° West 409 471 34,000  Level FlightAware ADS-B
Wed 03:28:38 PM 18.9040 -65.3160 298° West 409 471 34,000  Level FlightAware ADS-B
Wed 03:29:18 PM 18.9400 -65.3870 298° West 410 472 34,000  Level FlightAware ADS-B
Wed 03:30:03 PM 18.9810 -65.4670 298° West 411 473 34,000  Level FlightAware ADS-B
Wed 03:30:43 PM 19.0180 -65.5380 299° West 410 472 34,000  Level FlightAware ADS-B
Wed 03:31:28 PM 19.0580 -65.6170 298° West 411 473 34,000  Level FlightAware ADS-B
Wed 03:32:08 PM 19.0930 -65.6870 298° West 410 472 34,000  Level FlightAware ADS-B
Wed 03:32:48 PM 19.1290 -65.7570 299° West 410 472 34,000  Level FlightAware ADS-B
Wed 03:33:33 PM 19.1690 -65.8360 298° West 410 472 34,000  Level FlightAware ADS-B
Wed 03:34:13 PM 19.2060 -65.9100 298° West 410 472 34,000  Level FlightAware ADS-B
Wed 03:34:58 PM 19.2450 -65.9870 298° West 408 470 34,000  Level FlightAware ADS-B
Wed 03:35:38 PM 19.2810 -66.0570 299° West 406 467 34,000  Level FlightAware ADS-B
Wed 03:36:18 PM 19.3160 -66.1270 298° West 404 465 34,000  Level FlightAware ADS-B
Wed 03:37:03 PM 19.3560 -66.2080 298° West 405 466 34,000  Level FlightAware ADS-B
Wed 03:37:43 PM 19.3920 -66.2780 299° West 406 467 34,000  Level FlightAware ADS-B
Wed 03:38:13 PM 19.4180 -66.3310 297° West 407 468 34,000  Level FlightAware ADS-B
Wed 03:38:53 PM 19.4530 -66.4010 298° West 410 472 34,000  Level FlightAware ADS-B
Wed 03:39:38 PM 19.4930 -66.4800 298° West 412 474 34,000  Level FlightAware ADS-B
Wed 03:40:18 PM 19.5290 -66.5520 298° West 412 474 34,000  Level FlightAware ADS-B
Wed 03:40:58 PM 19.5640 -66.6230 298° West 415 478 34,000  Level FlightAware ADS-B
Wed 03:41:43 PM 19.6050 -66.7050 298° West 416 479 34,000  Level FlightAware ADS-B
Wed 03:42:23 PM 19.6420 -66.7780 298° West 417 480 34,000  Level FlightAware ADS-B
Wed 03:43:08 PM 19.6800 -66.8560 297° West 414 476 34,000  Level FlightAware ADS-B
Wed 03:43:48 PM 19.7180 -66.9310 298° West 412 474 34,000  Level FlightAware ADS-B
Wed 03:44:28 PM 19.7520 -67.0000 298° West 413 475 34,000  Level FlightAware ADS-B
Wed 03:45:08 PM 19.7850 -67.0690 297° West 413 475 34,000  Level FlightAware ADS-B
Wed 03:45:48 PM 19.8150 -67.1300 298° West 413 475 34,000  Level FlightAware ADS-B
Wed 03:46:38 PM 19.8520 -67.2070 297° West 413 475 34,000  Level FlightAware ADS-B
Wed 03:47:08 PM 19.8740 -67.2530 297° West 413 475 34,000  Level FlightAware ADS-B
Wed 03:47:38 PM 19.8960 -67.3000 296° West 413 475 34,000  Level FlightAware ADS-B
Wed 03:48:28 PM 19.9630 -67.4270 299° West 403 464 34,000  Level FlightAware ADS-B
Wed 03:49:08 PM 19.9930 -67.4900 297° West 403 464 34,000  Level FlightAware ADS-B
Wed 03:49:48 PM 20.0220 -67.5500 297° West 403 464 34,000  Level FlightAware ADS-B
Wed 03:50:28 PM 20.0670 -67.6380 299° West 402 463 34,000  Level FlightAware ADS-B
Wed 03:51:18 PM 20.1090 -67.7250 297° West 402 463 34,000  Level FlightAware ADS-B
Wed 03:51:58 PM 20.1400 -67.7900 297° West 402 463 34,000  Level FlightAware ADS-B
Wed 03:52:38 PM 20.1780 -67.8660 298° West 402 463 34,000  Level FlightAware ADS-B
Wed 03:53:33 PM 20.2220 -67.9570 297° West 402 463 34,000  Level FlightAware ADS-B
Wed 03:54:13 PM 20.2510 -68.0170 297° West 402 463 34,000  Level FlightAware ADS-B
Wed 03:55:03 PM 20.2870 -68.0920 297° West 402 463 34,000  Level FlightAware ADS-B
Wed 03:55:43 PM 20.3160 -68.1530 297° West 402 463 34,000  Level FlightAware ADS-B
Wed 03:56:23 PM 20.3440 -68.2130 296° West 402 463 34,000  Level FlightAware ADS-B
Wed 03:57:03 PM 20.3730 -68.2730 297° West 402 463 34,000  Level FlightAware ADS-B
Wed 03:57:43 PM 20.4020 -68.3330 297° West 402 463 34,000  Level FlightAware ADS-B
Wed 03:58:33 PM 20.4380 -68.4080 297° West 402 463 34,000  Level FlightAware ADS-B
Wed 03:59:13 PM 20.4660 -68.4680 296° West 402 463 34,000  Level FlightAware ADS-B
Wed 03:59:53 PM 20.4950 -68.5280 297° West 402 463 34,000  Level FlightAware ADS-B
Wed 04:00:33 PM 20.5240 -68.5880 297° West 402 463 34,000  Level FlightAware ADS-B
Wed 04:01:13 PM 20.5520 -68.6490 296° West 402 463 34,000  Level FlightAware ADS-B
Wed 04:02:03 PM 20.5880 -68.7240 297° West 402 463 34,000  Level FlightAware ADS-B
Wed 04:02:43 PM 20.6170 -68.7840 297° West 402 463 34,000  Level FlightAware ADS-B
Wed 04:03:34 PM 20.7311 -69.0219 297° West 404 465 34,000  Level Miami Center
Wed 04:04:34 PM 20.7844 -69.1297 298° West 404 465 34,000  Level Miami Center
Wed 04:05:34 PM 20.8375 -69.2375 298° West 410 472 34,000  Level Miami Center
Wed 04:06:34 PM 20.8889 -69.3475 297° West 410 472 34,000  Level Miami Center
Wed 04:07:34 PM 20.9417 -69.4533 298° West 416 479 34,000  Level Miami Center
Wed 04:08:34 PM 20.9928 -69.5614 297° West 416 479 34,000  Level Miami Center
Wed 04:09:34 PM 21.0458 -69.6717 297° West 416 479 34,000  Level Miami Center
Wed 04:10:34 PM 21.0989 -69.7800 298° West 416 479 34,000  Level Miami Center
Wed 04:11:34 PM 21.1497 -69.8906 296° West 416 479 34,000  Level Miami Center
Wed 04:12:34 PM 21.2025 -69.9989 298° West 416 479 34,000  Level Miami Center
Wed 04:13:34 PM 21.2553 -70.1097 297° West 416 479 34,000  Level Miami Center
Wed 04:14:34 PM 21.3103 -70.2203 298° West 416 479 34,000  Level Miami Center
Wed 04:15:34 PM 21.3631 -70.3314 297° West 416 479 34,000  Level Miami Center
Wed 04:16:34 PM 21.4156 -70.4422 297° West 416 479 34,000  Level Miami Center
Wed 04:17:34 PM 21.4681 -70.5533 297° West 416 479 34,000  Level Miami Center
Wed 04:18:34 PM 21.5228 -70.6667 297° West 421 484 34,000  Level Miami Center
Wed 04:19:34 PM 21.5753 -70.7803 296° West 421 484 34,000  Level Miami Center
Wed 04:20:34 PM 21.6297 -70.8936 297° West 421 484 34,000  Level Miami Center
Wed 04:21:34 PM 21.6864 -71.0072 298° West 421 484 34,000  Level Miami Center
Wed 04:22:34 PM 21.7367 -71.1211 295° West 426 490 34,000  Level Miami Center
Wed 04:23:34 PM 21.7908 -71.2372 297° West 426 490 34,000  Level Miami Center
Wed 04:24:34 PM 21.8411 -71.3511 295° West 426 490 34,000  Level Miami Center
Wed 04:25:34 PM 21.8931 -71.4653 296° West 426 490 34,000  Level Miami Center
Wed 04:26:34 PM 21.9450 -71.5772 297° West 426 490 34,000  Level Miami Center
Wed 04:27:34 PM 21.9989 -71.6936 297° West 426 490 34,000  Level Miami Center
Wed 04:28:34 PM 22.0508 -71.8081 296° West 426 490 34,000  Level Miami Center
Wed 04:29:34 PM 22.1025 -71.9225 296° West 426 490 34,000  Level Miami Center
Wed 04:30:34 PM 22.1544 -72.0392 296° West 431 496 34,000  Level Miami Center
Wed 04:31:34 PM 22.2100 -72.1539 298° West 436 502 34,000  Level Miami Center
Wed 04:32:34 PM 22.2597 -72.2731 294° West 436 502 34,000  Level Miami Center
Wed 04:33:34 PM 22.3133 -72.3878 297° West 436 502 34,000  Level Miami Center
Wed 04:34:34 PM 22.3667 -72.5006 297° West 436 502 34,000  Level Miami Center
Wed 04:35:34 PM 22.4181 -72.6200 295° West 431 496 34,000  Level Miami Center
Wed 04:36:34 PM 22.4711 -72.7328 297° West 431 496 34,000  Level Miami Center
Wed 04:37:34 PM 22.5222 -72.8481 296° West 436 502 34,000  Level Miami Center
Wed 04:38:34 PM 22.5756 -72.9633 297° West 436 502 34,000  Level Miami Center
Wed 04:39:34 PM 22.6264 -73.0789 295° West 431 496 34,000  Level Miami Center
Wed 04:40:34 PM 22.6731 -73.1922 294° West 426 490 34,000  Level Miami Center
Wed 04:41:34 PM 22.7219 -73.3103 294° West 426 490 34,000  Level Miami Center
Wed 04:42:34 PM 22.7725 -73.4236 296° West 421 484 34,000  Level Miami Center
Wed 04:43:34 PM 22.8253 -73.5372 297° West 416 479 34,000  Level Miami Center
Wed 04:44:34 PM 22.8778 -73.6531 296° West 416 479 34,000  Level Miami Center
Wed 04:45:34 PM 22.9283 -73.7689 295° West 416 479 34,000  Level Miami Center
Wed 04:46:34 PM 22.9786 -73.8828 296° West 421 484 34,000  Level Miami Center
Wed 04:47:34 PM 23.0289 -73.9967 296° West 421 484 34,000  Level Miami Center
Wed 04:48:34 PM 23.0792 -74.1131 295° West 421 484 34,000  Level Miami Center
Wed 04:49:34 PM 23.1292 -74.2272 295° West 421 484 34,000  Level Miami Center
Wed 04:50:34 PM 23.1792 -74.3392 296° West 421 484 34,000  Level Miami Center
Wed 04:51:34 PM 23.2269 -74.4511 295° West 416 479 34,000  Level Miami Center
Wed 04:52:34 PM 23.2767 -74.5656 295° West 416 479 34,000  Level Miami Center
Wed 04:53:34 PM 23.3267 -74.6778 296° West 416 479 34,000  Level Miami Center
Wed 04:54:34 PM 23.3761 -74.7925 295° West 421 484 34,000  Level Miami Center
Wed 04:55:34 PM 23.4236 -74.9047 295° West 421 484 34,000  Level Miami Center
Wed 04:56:34 PM 23.4733 -75.0194 295° West 421 484 34,000  Level Miami Center
Wed 04:57:34 PM 23.5247 -75.1344 296° West 421 484 34,000  Level Miami Center
Wed 04:58:34 PM 23.5742 -75.2469 296° West 421 484 34,000  Level Miami Center
Wed 04:59:34 PM 23.6233 -75.3619 295° West 421 484 34,000  Level Miami Center
Wed 05:00:34 PM 23.6706 -75.4794 294° West 421 484 34,000  Level Miami Center
Wed 05:01:34 PM 23.7217 -75.5925 296° West 421 484 34,000  Level Miami Center
Wed 05:02:34 PM 23.7686 -75.7078 294° West 421 484 34,000  Level Miami Center
Wed 05:03:34 PM 23.8175 -75.8231 295° West 421 484 34,000  Level Miami Center
Wed 05:04:34 PM 23.8661 -75.9408 294° West 421 484 34,000  Level Miami Center
Wed 05:05:34 PM 23.9150 -76.0542 295° West 421 484 34,000  Level Miami Center
Wed 05:06:34 PM 23.9614 -76.1675 294° West 421 484 34,000  Level Miami Center
Wed 05:07:34 PM 24.0081 -76.2811 294° West 416 479 34,000  Level Miami Center
Wed 05:08:34 PM 24.0564 -76.3947 295° West 416 479 34,000  Level Miami Center
Wed 05:09:34 PM 24.1028 -76.5106 294° West 416 479 34,000  Level Miami Center
Wed 05:10:34 PM 24.1511 -76.6242 295° West 416 479 34,000  Level Miami Center
Wed 05:11:34 PM 24.1972 -76.7381 294° West 416 479 34,000  Level Miami Center
Wed 05:12:34 PM 24.2453 -76.8542 294° West 416 479 34,000  Level Miami Center
Wed 05:13:34 PM 24.2914 -76.9683 294° West 416 479 34,000  Level Miami Center
Wed 05:14:34 PM 24.3392 -77.0847 294° West 416 479 34,000  Level Miami Center
Wed 05:15:34 PM 24.3869 -77.2011 294° West 416 479 34,000  Level Miami Center
Wed 05:16:34 PM 24.4328 -77.3153 294° West 416 479 34,000  Level Miami Center
Wed 05:17:34 PM 24.4783 -77.4275 294° West 416 479 34,000  Level Miami Center
Wed 05:18:34 PM 24.5258 -77.5464 294° West 416 479 34,000  Level Miami Center
Wed 05:19:34 PM 24.5714 -77.6608 294° West 416 479 34,000  Level Miami Center
Wed 05:20:34 PM 24.6228 -77.7869 294° West 411 473 34,000  Level Miami Center
Wed 05:21:34 PM 24.6700 -77.9039 294° West 416 479 34,000  Level Miami Center
Wed 05:27:18 PM 24.9300 -78.5440 294° West 403 464 34,000 -301 Level FlightAware ADS-B
Wed 05:28:33 PM 24.9860 -78.6870 293° West 415 478 31,900 -1,738 Descending FlightAware ADS-B
Wed 05:29:43 PM 25.0410 -78.8280 293° West 422 486 29,800 -2,673 Descending FlightAware ADS-B
Wed 05:30:23 PM 25.0750 -78.9110 294° West 418 481 27,000 -3,247 Descending FlightAware ADS-B
Wed 05:31:08 PM 25.1090 -78.9980 293° West 413 475 25,200 -2,400 Descending FlightAware ADS-B
Wed 05:31:48 PM 25.1380 -79.0730 293° West 408 470 23,600 -2,400 Descending FlightAware ADS-B
Wed 05:32:38 PM 25.1760 -79.1700 293° West 396 456 21,600 -2,280 Descending FlightAware ADS-B
Wed 05:33:28 PM 25.2090 -79.2560 293° West 390 449 19,800 -2,267 Descending FlightAware ADS-B
Wed 05:34:08 PM 25.2400 -79.3350 293° West 383 441 18,200 -2,250 Descending FlightAware ADS-B
Wed 05:34:48 PM 25.2670 -79.4050 293° West 373 429 16,800 -2,133 Descending FlightAware ADS-B
Wed 05:35:38 PM 25.3020 -79.4930 294° West 358 412 15,000 -2,067 Descending FlightAware ADS-B
Wed 05:36:18 PM 25.3280 -79.5600 293° West 353 406 13,700 -1,800 Descending FlightAware ADS-B
Wed 05:36:58 PM 25.3530 -79.6270 292° West 347 399 12,600 -1,341 Descending FlightAware ADS-B
Wed 05:37:43 PM 25.3810 -79.6980 294° West 332 382 11,800 -565 Descending FlightAware ADS-B
Wed 05:38:23 PM 25.4110 -79.7560 300° West 326 375 11,800  Level FlightAware ADS-B
Wed 05:39:03 PM 25.4470 -79.8110 306° West 328 377 11,800  Level FlightAware ADS-B
Wed 05:39:48 PM 25.4870 -79.8710 306° West 327 376 11,800 -141 Level FlightAware ADS-B
Wed 05:40:28 PM 25.5220 -79.9250 306° West 328 377 11,600 -565 Descending FlightAware ADS-B
Wed 05:41:13 PM 25.5630 -79.9870 306° West 316 364 11,000 -847 Descending FlightAware ADS-B
Wed 05:41:53 PM 25.5960 -80.0370 306° West 293 337 10,400 -1,200 Descending FlightAware ADS-B
Wed 05:42:23 PM 25.6200 -80.0750 305° West 288 331 9,600 -1,418 Descending FlightAware ADS-B
Wed 05:42:48 PM 25.6400 -80.1050 306° West 284 327 9,100 -1,050 Descending FlightAware ADS-B
Wed 05:43:03 PM 25.6510 -80.1220 306° West 282 325 8,900 -933 Descending FlightAware ADS-B
Wed 05:43:33 PM 25.6690 -80.1620 297° West 289 333 8,400 -1,091 Descending FlightAware ADS-B
Wed 05:43:58 PM 25.6780 -80.1980 286° West 288 331 7,900 -1,309 Descending FlightAware ADS-B
Wed 05:44:28 PM 25.6890 -80.2400 286° West 281 323 7,200 -1,500 Descending FlightAware ADS-B
Wed 05:44:58 PM 25.7000 -80.2820 286° West 284 327 6,400 -1,418 Descending FlightAware ADS-B
Wed 05:45:23 PM 25.7080 -80.3170 284° West 276 318 5,900 -1,457 Descending FlightAware ADS-B
Wed 05:46:08 PM 25.7080 -80.3780 270° West 264 304 4,700 -1,560 Descending FlightAware ADS-B
Wed 05:46:13 PM 25.7080 -80.3830 270° West 264 304 4,600 -1,029 Descending FlightAware ADS-B
Wed 05:46:43 PM 25.7060 -80.4230 267° West 241 277 4,100 -1,100 Descending FlightAware ADS-B
Wed 05:47:13 PM 25.7190 -80.4530 296° West 237 273 3,500 -1,333 Descending FlightAware ADS-B
Wed 05:47:28 PM 25.7330 -80.4570 346° North 196 226 3,100 -1,333 Descending FlightAware ADS-B
Wed 05:47:58 PM 25.7520 -80.4400 39° Northeast 168 193 2,500 -1,200 Descending FlightAware ADS-B
Wed 05:48:18 PM 25.7600 -80.4260 58° Northeast 159 183 2,100 -1,200 Descending FlightAware ADS-B
Wed 05:48:53 PM 25.7720 -80.4030 60° Northeast 145 167 1,400 -1,000 Descending FlightAware ADS-B
Wed 05:49:18 PM 25.7790 -80.3890 61° Northeast 131 151 1,100 -655 Descending FlightAware ADS-B
Wed 05:49:48 PM 25.7840 -80.3680 75° East 130 150 800 -600 Descending FlightAware ADS-B
Wed 05:50:18 PM 25.7850 -80.3480 87° East 130 150 500 -600 Descending FlightAware ADS-B
Wed 05:50:48 PM 25.7860 -80.3290 87° East 134 154 200 -327 Descending FlightAware ADS-B
Wed 05:51:13 PM 25.7860 -80.3140 90° East 134 154 200  Level FlightAware ADS-B

Login

Don't have an account? Register now (free) for customized features, flight alerts, and more!